Time;durP1;ratioP1;P1;durP2;ratioP2;P2;SDS_P1;SDS_P2;PMS_P1;PMS_P2;Temp;Humidity;BMP_temperature;BMP_pressure;BME280_temperature;BME280_humidity;BME280_pressure;Samples;Min_cycle;Max_cycle;Signal;HPM_P1;HPM_P2
2022/09/29 00:01:55;;;;;;;4.47;4.18;;;8.80;99.90;;;;;;5016944;28;20327;-72
2022/09/29 00:04:21;;;;;;;5.38;3.80;;;8.80;99.90;;;;;;5018336;28;20173;-72
2022/09/29 00:06:46;;;;;;;5.03;4.53;;;8.80;99.90;;;;;;5028005;28;20251;-72
2022/09/29 00:09:12;;;;;;;5.22;4.72;;;8.70;99.90;;;;;;5012366;28;20767;-72
2022/09/29 00:11:37;;;;;;;4.75;4.35;;;8.50;99.90;;;;;;5018503;28;20205;-72
2022/09/29 00:14:03;;;;;;;5.97;4.10;;;8.50;99.90;;;;;;5008999;28;20213;-73
2022/09/29 00:16:29;;;;;;;4.63;3.80;;;8.50;99.90;;;;;;5016726;28;20852;-73
2022/09/29 00:18:54;;;;;;;5.68;4.28;;;8.40;99.90;;;;;;5002020;28;20656;-72
2022/09/29 00:21:21;;;;;;;5.07;4.57;;;8.40;99.90;;;;;;5005136;28;20204;-73
2022/09/29 00:23:48;;;;;;;4.18;3.78;;;8.40;99.90;;;;;;5000943;28;20190;-72
2022/09/29 00:26:19;;;;;;;4.15;3.60;;;8.40;99.90;;;;;;5006645;28;20185;-73
2022/09/29 00:28:56;;;;;;;4.53;4.00;;;8.50;99.90;;;;;;5019579;28;20181;-78
2022/09/29 00:31:24;;;;;;;3.35;3.15;;;8.60;99.90;;;;;;5006579;28;20201;-72
2022/09/29 00:33:50;;;;;;;4.28;3.92;;;8.60;99.90;;;;;;5000945;28;20205;-73
2022/09/29 00:36:18;;;;;;;4.30;3.08;;;8.70;99.90;;;;;;5009990;28;20180;-72
2022/09/29 00:38:45;;;;;;;3.40;3.20;;;8.80;99.90;;;;;;5003706;28;20584;-72
2022/09/29 00:41:25;;;;;;;3.95;3.10;;;8.90;99.90;;;;;;4996051;28;20523;-72
2022/09/29 00:44:01;;;;;;;3.53;3.20;;;8.90;99.90;;;;;;5010260;28;20185;-73
2022/09/29 00:46:39;;;;;;;3.63;3.00;;;9.00;99.90;;;;;;5009884;28;20172;-72
2022/09/29 00:49:29;;;;;;;4.93;3.47;;;8.90;99.90;;;;;;5009981;28;20256;-72
2022/09/29 00:52:21;;;;;;;4.13;3.30;;;8.80;99.90;;;;;;5017094;28;20210;-73
2022/09/29 00:54:57;;;;;;;3.28;3.08;;;8.60;99.90;;;;;;5007485;28;20192;-73
2022/09/29 00:57:27;;;;;;;2.92;2.72;;;8.50;99.90;;;;;;5004874;28;20196;-73
2022/09/29 01:00:08;;;;;;;3.53;3.22;;;8.50;99.90;;;;;;5014447;28;20177;-73
2022/09/29 01:02:37;;;;;;;3.25;2.95;;;8.50;99.90;;;;;;5011382;28;20200;-73
2022/09/29 01:05:07;;;;;;;3.60;2.70;;;8.50;99.90;;;;;;5020942;28;20256;-73
2022/09/29 01:07:33;;;;;;;3.15;2.95;;;8.40;99.90;;;;;;5004046;28;20187;-73
2022/09/29 01:09:59;;;;;;;3.55;3.30;;;8.60;99.90;;;;;;5005827;28;20181;-73
2022/09/29 01:12:25;;;;;;;3.38;3.10;;;8.70;99.90;;;;;;5016432;28;20197;-73
2022/09/29 01:14:53;;;;;;;3.13;2.92;;;8.70;99.90;;;;;;5023862;28;20227;-73
2022/09/29 01:17:20;;;;;;;3.88;2.85;;;8.80;99.90;;;;;;5022524;28;20187;-73
2022/09/29 01:20:06;;;;;;;3.92;3.50;;;8.70;99.90;;;;;;5025971;28;20184;-73
2022/09/29 01:23:04;;;;;;;3.90;2.55;;;8.70;99.90;;;;;;5013930;28;20611;-73
2022/09/29 01:25:53;;;;;;;3.25;2.85;;;8.70;99.90;;;;;;5009506;28;20183;-73
2022/09/29 01:28:26;;;;;;;3.33;3.00;;;8.60;99.90;;;;;;5014897;28;20183;-73
2022/09/29 01:30:58;;;;;;;3.30;3.10;;;8.60;99.90;;;;;;5026678;28;20177;-72
2022/09/29 01:33:42;;;;;;;5.22;2.97;;;8.60;99.90;;;;;;5017409;28;20200;-73
2022/09/29 01:36:20;;;;;;;3.00;2.80;;;8.50;99.90;;;;;;5017919;28;20231;-72
2022/09/29 01:39:21;;;;;;;3.35;3.15;;;8.50;99.90;;;;;;5019536;28;20185;-73
2022/09/29 01:42:02;;;;;;;5.00;3.67;;;8.50;99.90;;;;;;5020956;28;20346;-73
2022/09/29 01:44:31;;;;;;;3.08;2.88;;;8.40;99.90;;;;;;5019974;28;20180;-72
2022/09/29 01:47:07;;;;;;;3.80;3.42;;;8.40;99.90;;;;;;5018044;28;20188;-72
2022/09/29 01:49:38;;;;;;;4.57;3.17;;;8.40;99.90;;;;;;5001599;28;20196;-72
2022/09/29 01:52:20;;;;;;;4.00;3.50;;;8.30;99.90;;;;;;5018730;28;20224;-72
2022/09/29 01:54:55;;;;;;;4.88;3.67;;;8.30;99.90;;;;;;5005424;28;20209;-72
2022/09/29 01:57:30;;;;;;;4.13;3.72;;;8.30;99.90;;;;;;5011991;28;20188;-72
2022/09/29 02:00:06;;;;;;;4.18;3.78;;;8.20;99.90;;;;;;5002834;28;20181;-73
2022/09/29 02:02:41;;;;;;;3.92;3.63;;;8.20;99.90;;;;;;5014192;28;20631;-73
2022/09/29 02:08:50;;;;;;;4.20;3.80;;;8.30;99.90;;;;;;5001966;28;20346;-72
2022/09/29 02:11:17;;;;;;;3.92;3.60;;;8.30;99.90;;;;;;5000312;28;20198;-72
2022/09/29 02:13:58;;;;;;;4.88;3.67;;;8.20;99.90;;;;;;4998334;28;20344;-73
2022/09/29 02:16:30;;;;;;;4.40;4.00;;;8.10;99.90;;;;;;4996645;28;20174;-72
2022/09/29 02:19:06;;;;;;;4.40;4.00;;;8.10;99.90;;;;;;4999619;28;20187;-72
2022/09/29 02:21:33;;;;;;;4.20;3.50;;;8.00;99.90;;;;;;4995554;28;20579;-73
2022/09/29 02:23:59;;;;;;;3.95;3.55;;;8.00;99.90;;;;;;5001641;28;20182;-72
2022/09/29 02:26:32;;;;;;;4.50;3.58;;;7.90;99.90;;;;;;5001136;28;20199;-72
2022/09/29 02:28:59;;;;;;;4.00;3.70;;;7.90;99.90;;;;;;5004742;28;20182;-72
2022/09/29 02:31:25;;;;;;;4.38;3.45;;;7.90;99.90;;;;;;5002013;28;20284;-72
2022/09/29 02:33:51;;;;;;;5.03;4.43;;;7.90;99.90;;;;;;5007765;28;20296;-72
2022/09/29 02:36:40;;;;;;;3.70;3.40;;;7.80;99.90;;;;;;5012306;28;20176;-73
2022/09/29 02:39:29;;;;;;;3.85;3.50;;;7.80;99.90;;;;;;5013297;28;20195;-73
2022/09/29 02:42:48;;;;;;;3.42;3.05;;;7.60;99.90;;;;;;5017656;28;20201;-73
2022/09/29 02:45:39;;;;;;;5.30;3.33;;;7.60;99.90;;;;;;5003986;28;20314;-73
2022/09/29 02:48:32;;;;;;;5.45;3.45;;;7.50;99.90;;;;;;5011815;28;20186;-73
2022/09/29 02:51:12;;;;;;;3.35;3.08;;;7.50;99.90;;;;;;5022418;28;20172;-74
2022/09/29 02:53:54;;;;;;;5.00;3.83;;;7.40;99.90;;;;;;5023012;28;20204;-73
2022/09/29 02:56:51;;;;;;;3.45;3.20;;;7.30;99.90;;;;;;5015337;28;20200;-73
2022/09/29 02:59:26;;;;;;;4.85;3.33;;;7.20;99.90;;;;;;5019347;28;20196;-72
2022/09/29 03:01:54;;;;;;;3.75;3.45;;;7.20;99.90;;;;;;5003080;28;20648;-73
2022/09/29 03:04:22;;;;;;;4.25;3.35;;;7.10;99.90;;;;;;5015764;28;20183;-73
2022/09/29 03:06:48;;;;;;;3.45;3.17;;;7.00;99.90;;;;;;5012766;28;20276;-73
2022/09/29 03:09:13;;;;;;;5.05;3.88;;;6.90;99.90;;;;;;5000121;28;20653;-72
2022/09/29 03:11:39;;;;;;;5.00;3.50;;;6.90;99.90;;;;;;5008106;28;20213;-73
2022/09/29 03:14:08;;;;;;;3.20;2.90;;;6.80;99.90;;;;;;5017457;28;20205;-72
2022/09/29 03:16:34;;;;;;;3.42;3.13;;;6.80;99.90;;;;;;5012722;28;20522;-72
2022/09/29 03:19:00;;;;;;;3.22;3.03;;;6.80;99.90;;;;;;5016646;28;20186;-72
2022/09/29 03:21:25;;;;;;;5.07;3.20;;;6.80;99.90;;;;;;5029895;28;20196;-72
2022/09/29 03:23:51;;;;;;;3.72;3.35;;;6.90;99.90;;;;;;5027605;28;20187;-73
2022/09/29 03:26:17;;;;;;;3.30;2.85;;;6.90;99.90;;;;;;5030275;28;20635;-73
2022/09/29 03:28:42;;;;;;;4.68;3.30;;;6.90;99.90;;;;;;5024348;28;20181;-72
2022/09/29 03:31:09;;;;;;;3.20;3.00;;;6.70;99.90;;;;;;5015418;28;20200;-73
2022/09/29 03:33:37;;;;;;;3.40;3.13;;;6.70;99.90;;;;;;5029226;28;20239;-72
2022/09/29 03:36:04;;;;;;;3.72;3.42;;;6.60;99.90;;;;;;5016024;28;20224;-72
2022/09/29 03:38:30;;;;;;;3.92;3.53;;;6.60;99.90;;;;;;5024382;28;20173;-72
2022/09/29 03:40:56;;;;;;;3.50;3.03;;;6.60;99.90;;;;;;5024639;28;20181;-73
2022/09/29 03:43:21;;;;;;;4.05;3.65;;;6.60;99.90;;;;;;5030774;28;20551;-73
2022/09/29 03:45:52;;;;;;;3.38;3.08;;;6.60;99.90;;;;;;5028184;28;20259;-73
2022/09/29 03:48:19;;;;;;;3.13;2.92;;;6.40;99.90;;;;;;5012168;28;20191;-73
2022/09/29 03:50:45;;;;;;;3.20;2.97;;;6.40;99.90;;;;;;5017297;28;20663;-73
2022/09/29 03:53:11;;;;;;;3.28;3.03;;;6.40;99.90;;;;;;5023941;28;20222;-73
2022/09/29 03:55:37;;;;;;;5.82;3.13;;;6.50;99.90;;;;;;5029638;28;20586;-73
2022/09/29 03:58:03;;;;;;;3.47;3.17;;;6.50;99.90;;;;;;5024920;28;20185;-72
2022/09/29 04:00:28;;;;;;;3.53;3.33;;;6.50;99.90;;;;;;5024376;28;20180;-73
2022/09/29 04:02:54;;;;;;;3.75;3.45;;;6.40;99.90;;;;;;5017659;28;20230;-73
2022/09/29 04:05:20;;;;;;;3.33;3.03;;;6.30;99.90;;;;;;5015530;28;20561;-73
2022/09/29 04:07:45;;;;;;;3.05;2.85;;;6.20;99.90;;;;;;5021037;28;20188;-73
2022/09/29 04:10:11;;;;;;;2.92;2.72;;;6.20;99.90;;;;;;5023223;28;20207;-73
2022/09/29 04:12:36;;;;;;;2.92;2.72;;;6.20;99.90;;;;;;5007291;28;20301;-73
2022/09/29 04:15:02;;;;;;;4.07;3.08;;;6.20;99.90;;;;;;5012933;28;20260;-72
2022/09/29 04:17:28;;;;;;;3.40;3.08;;;6.10;99.90;;;;;;5012697;28;20182;-72
2022/09/29 04:19:53;;;;;;;3.40;3.10;;;6.10;99.90;;;;;;5012670;28;20235;-73
2022/09/29 04:22:19;;;;;;;3.05;2.85;;;6.10;99.90;;;;;;5006138;28;20622;-72
2022/09/29 04:24:46;;;;;;;3.55;3.25;;;6.20;99.90;;;;;;4995587;28;20221;-73
2022/09/29 04:27:11;;;;;;;4.10;3.25;;;6.30;99.90;;;;;;5009679;28;20183;-72
2022/09/29 04:29:37;;;;;;;3.60;3.40;;;6.30;99.90;;;;;;4999036;28;20185;-73
2022/09/29 04:32:04;;;;;;;3.92;3.65;;;6.40;99.90;;;;;;4996131;28;20635;-73
2022/09/29 04:34:30;;;;;;;3.88;3.58;;;6.30;99.90;;;;;;4998852;28;20279;-73
2022/09/29 04:36:55;;;;;;;3.60;3.30;;;6.30;99.90;;;;;;4996241;28;20656;-72
2022/09/29 04:39:21;;;;;;;3.65;3.35;;;6.30;99.90;;;;;;5000309;28;20228;-72
2022/09/29 04:41:47;;;;;;;7.35;3.42;;;6.20;99.90;;;;;;5005819;28;20217;-73
2022/09/29 04:44:12;;;;;;;4.47;3.17;;;6.20;99.90;;;;;;5001167;28;20189;-73
2022/09/29 04:46:38;;;;;;;3.53;3.22;;;6.20;99.90;;;;;;5000931;28;20710;-73
2022/09/29 04:49:04;;;;;;;3.33;2.97;;;6.20;99.90;;;;;;4996521;28;20269;-72
2022/09/29 04:51:29;;;;;;;3.75;3.35;;;6.20;99.90;;;;;;4995605;28;20237;-73
2022/09/29 04:53:57;;;;;;;4.07;3.63;;;6.20;99.90;;;;;;4997938;28;20202;-73
2022/09/29 04:56:23;;;;;;;3.85;3.35;;;6.10;99.90;;;;;;4997551;28;20865;-72
2022/09/29 04:58:48;;;;;;;4.18;3.88;;;6.00;99.90;;;;;;5001479;28;20170;-72
2022/09/29 05:01:14;;;;;;;4.32;3.78;;;6.00;99.90;;;;;;4998756;28;20204;-72
2022/09/29 05:03:41;;;;;;;4.57;4.18;;;6.00;99.90;;;;;;4997539;28;20220;-73
2022/09/29 05:06:08;;;;;;;4.47;4.03;;;6.10;99.90;;;;;;5004257;28;20216;-72
2022/09/29 05:08:34;;;;;;;4.35;3.95;;;6.20;99.90;;;;;;4999931;28;20181;-72
2022/09/29 05:11:07;;;;;;;4.45;4.05;;;6.40;99.90;;;;;;5004588;28;20630;-72
2022/09/29 05:13:33;;;;;;;5.25;4.75;;;6.50;99.90;;;;;;5009503;28;20197;-72
2022/09/29 05:15:59;;;;;;;4.75;4.35;;;6.60;99.90;;;;;;5007499;28;20181;-73
2022/09/29 05:18:25;;;;;;;6.47;4.60;;;6.80;99.90;;;;;;5009293;28;20185;-73
2022/09/29 05:20:52;;;;;;;5.28;4.78;;;6.90;99.90;;;;;;5006804;28;20189;-73
2022/09/29 05:23:18;;;;;;;7.97;4.65;;;7.10;99.90;;;;;;5005786;28;20177;-73
2022/09/29 05:25:44;;;;;;;5.50;4.45;;;7.20;99.90;;;;;;5009223;28;20260;-74
2022/09/29 05:28:10;;;;;;;4.60;4.20;;;7.30;99.90;;;;;;5016859;28;20821;-74
2022/09/29 05:30:37;;;;;;;5.45;4.95;;;7.40;99.90;;;;;;5001048;28;20182;-74
2022/09/29 05:33:03;;;;;;;5.95;5.15;;;7.50;99.90;;;;;;4995619;28;20220;-74
2022/09/29 05:35:29;;;;;;;6.38;5.20;;;7.70;99.90;;;;;;5003290;28;20188;-74
2022/09/29 05:37:55;;;;;;;7.57;6.95;;;7.80;99.90;;;;;;5004777;28;20181;-74
2022/09/29 05:40:24;;;;;;;5.10;4.30;;;8.00;99.90;;;;;;5005150;28;20196;-74
2022/09/29 05:42:50;;;;;;;5.15;4.00;;;8.10;99.90;;;;;;5004699;28;20284;-73
2022/09/29 05:45:17;;;;;;;6.30;4.53;;;8.10;99.90;;;;;;5005016;28;20176;-73
2022/09/29 05:47:43;;;;;;;4.70;4.30;;;8.20;99.90;;;;;;5005340;28;20185;-77
2022/09/29 05:50:11;;;;;;;6.70;4.82;;;8.40;99.90;;;;;;5023682;28;20184;-74
2022/09/29 05:52:37;;;;;;;7.35;4.63;;;8.40;99.90;;;;;;5021176;28;20200;-72
2022/09/29 05:55:03;;;;;;;4.88;4.30;;;8.50;99.90;;;;;;5022425;28;20190;-73
2022/09/29 05:57:30;;;;;;;5.15;4.63;;;8.50;99.90;;;;;;5015711;28;20280;-72
2022/09/29 05:59:56;;;;;;;4.70;4.30;;;8.60;99.90;;;;;;5016205;28;20605;-72
2022/09/29 06:02:21;;;;;;;5.63;5.13;;;8.70;99.90;;;;;;5015506;28;20279;-75
2022/09/29 06:04:48;;;;;;;5.70;5.03;;;8.90;99.90;;;;;;5003529;28;20275;-78
2022/09/29 06:07:14;;;;;;;5.78;5.28;;;9.00;99.90;;;;;;5016121;28;20181;-75
2022/09/29 06:09:39;;;;;;;5.10;4.63;;;9.10;99.90;;;;;;4999164;28;20218;-79
2022/09/29 06:12:05;;;;;;;5.30;4.75;;;9.30;99.90;;;;;;5012039;28;20211;-76
2022/09/29 06:14:30;;;;;;;5.30;4.90;;;9.40;99.90;;;;;;5030740;28;20235;-78
2022/09/29 06:16:56;;;;;;;4.57;4.25;;;9.40;99.90;;;;;;5032425;28;20247;-78
2022/09/29 06:19:22;;;;;;;5.97;4.70;;;9.50;99.90;;;;;;5015536;28;20585;-77
2022/09/29 06:21:47;;;;;;;5.72;5.22;;;9.70;99.90;;;;;;5015203;28;20220;-77
2022/09/29 06:24:13;;;;;;;5.22;4.50;;;9.90;99.90;;;;;;5015470;28;20180;-76
2022/09/29 06:26:38;;;;;;;5.68;4.57;;;10.20;99.90;;;;;;5015005;28;20181;-76
2022/09/29 06:29:04;;;;;;;5.68;5.10;;;10.30;99.90;;;;;;5015503;28;20180;-76
2022/09/29 06:31:30;;;;;;;5.82;4.50;;;10.50;99.90;;;;;;5015277;28;20197;-76
2022/09/29 06:33:57;;;;;;;5.50;5.03;;;10.60;99.90;;;;;;4997155;28;20193;-76
2022/09/29 06:39:23;;;;;;;5.25;4.72;;;10.80;99.90;;;;;;5014869;28;20208;-76
2022/09/29 06:41:53;;;;;;;5.90;5.40;;;10.80;99.90;;;;;;5014991;28;20667;-76
2022/09/29 06:44:20;;;;;;;7.07;5.70;;;10.70;99.90;;;;;;5014497;28;20216;-76
2022/09/29 06:46:46;;;;;;;7.25;5.32;;;10.60;99.90;;;;;;5015296;28;20181;-76
2022/09/29 06:49:14;;;;;;;6.70;6.05;;;10.50;99.90;;;;;;5015292;28;20722;-76
2022/09/29 06:51:39;;;;;;;6.90;6.20;;;10.50;99.90;;;;;;5015029;28;20682;-76
2022/09/29 06:54:05;;;;;;;8.63;7.82;;;10.60;99.90;;;;;;5012195;28;20236;-76
2022/09/29 06:56:31;;;;;;;10.48;8.13;;;10.70;99.90;;;;;;5013177;28;20527;-78
2022/09/29 06:58:57;;;;;;;9.05;8.35;;;10.90;99.90;;;;;;5010591;28;20331;-76
2022/09/29 07:01:22;;;;;;;9.32;7.47;;;11.10;99.90;;;;;;5014192;28;20740;-77
2022/09/29 07:03:48;;;;;;;9.10;8.30;;;11.30;99.90;;;;;;5014422;28;20182;-76
2022/09/29 07:06:14;;;;;;;8.60;7.78;;;11.30;99.90;;;;;;5014300;28;20208;-76
2022/09/29 07:08:40;;;;;;;9.00;8.10;;;11.30;99.90;;;;;;5006083;28;20648;-76
2022/09/29 07:11:07;;;;;;;7.93;7.22;;;11.40;99.90;;;;;;5007540;28;20185;-76
2022/09/29 07:13:33;;;;;;;7.72;6.70;;;11.40;99.90;;;;;;5003445;28;20271;-76
2022/09/29 07:16:12;;;;;;;7.72;7.13;;;11.40;99.90;;;;;;5002833;28;20181;-76
2022/09/29 07:18:41;;;;;;;7.22;6.60;;;11.30;99.90;;;;;;5003265;28;20215;-76
2022/09/29 07:21:09;;;;;;;7.07;6.40;;;11.20;99.90;;;;;;5000547;28;20193;-77
2022/09/29 07:23:35;;;;;;;7.47;6.90;;;11.10;99.90;;;;;;5003631;28;20683;-76
2022/09/29 07:26:00;;;;;;;6.93;6.22;;;10.90;99.90;;;;;;5007567;28;20678;-76
2022/09/29 07:28:27;;;;;;;7.20;6.50;;;10.90;99.90;;;;;;5006543;28;20182;-74
2022/09/29 07:31:06;;;;;;;9.82;6.28;;;10.90;99.90;;;;;;5007398;28;20178;-74
2022/09/29 07:33:32;;;;;;;7.03;6.43;;;10.90;99.90;;;;;;5005903;28;20190;-74
2022/09/29 07:35:59;;;;;;;7.18;6.47;;;10.90;99.90;;;;;;5005693;28;20228;-75
2022/09/29 07:38:26;;;;;;;6.80;6.28;;;10.80;99.90;;;;;;5004760;28;20170;-76
2022/09/29 07:40:51;;;;;;;6.45;5.65;;;10.90;99.90;;;;;;5010315;28;20224;-74
2022/09/29 07:43:17;;;;;;;6.43;5.82;;;11.10;99.90;;;;;;5014756;28;20185;-74
2022/09/29 07:45:50;;;;;;;5.70;5.30;;;11.20;99.90;;;;;;5014615;28;20181;-74
2022/09/29 07:48:16;;;;;;;6.03;5.43;;;11.40;99.90;;;;;;5004917;28;20254;-74
2022/09/29 07:50:43;;;;;;;6.20;5.72;;;11.60;99.90;;;;;;5013909;28;20272;-74
2022/09/29 07:53:09;;;;;;;7.45;5.55;;;11.80;99.90;;;;;;5014171;28;20231;-74
2022/09/29 07:55:34;;;;;;;5.95;5.45;;;11.70;99.90;;;;;;5013917;28;20251;-73
2022/09/29 07:58:00;;;;;;;6.00;5.60;;;11.80;99.90;;;;;;5013641;28;20213;-74
2022/09/29 08:00:27;;;;;;;5.90;5.45;;;11.90;99.90;;;;;;5013338;28;20173;-75
2022/09/29 08:02:53;;;;;;;5.32;5.03;;;12.20;99.90;;;;;;5004346;28;20194;-74
2022/09/29 08:05:18;;;;;;;5.63;5.15;;;12.50;99.90;;;;;;5006456;28;20544;-74
2022/09/29 08:07:49;;;;;;;5.70;5.20;;;12.80;99.90;;;;;;5007259;28;20272;-73
2022/09/29 08:10:15;;;;;;;5.63;5.20;;;13.10;99.90;;;;;;5010098;28;20603;-73
2022/09/29 08:12:40;;;;;;;5.07;4.68;;;13.10;99.90;;;;;;5001890;28;20225;-75
2022/09/29 08:15:06;;;;;;;5.22;4.75;;;13.20;99.90;;;;;;5003167;28;21778;-74
2022/09/29 08:17:32;;;;;;;6.07;5.57;;;13.00;99.90;;;;;;5000534;28;20186;-74
2022/09/29 08:19:57;;;;;;;5.47;5.03;;;13.10;99.90;;;;;;5003580;28;20180;-74
2022/09/29 08:22:23;;;;;;;6.53;5.97;;;12.80;99.90;;;;;;5004625;28;20624;-74
2022/09/29 08:24:49;;;;;;;6.85;6.15;;;12.80;99.90;;;;;;5002492;28;20176;-75
2022/09/29 08:27:15;;;;;;;5.70;5.20;;;12.90;99.90;;;;;;5004167;28;20261;-74
2022/09/29 08:29:41;;;;;;;6.35;5.72;;;13.00;99.90;;;;;;5002247;28;20619;-74
2022/09/29 08:32:06;;;;;;;7.00;6.40;;;13.10;99.90;;;;;;5006628;28;20287;-74
2022/09/29 08:34:32;;;;;;;6.47;5.97;;;13.20;99.90;;;;;;5002690;28;20260;-74
2022/09/29 08:36:57;;;;;;;5.55;5.15;;;13.10;99.90;;;;;;5004147;28;20181;-74
2022/09/29 08:39:23;;;;;;;6.15;5.47;;;13.40;99.90;;;;;;5000843;28;20274;-75
2022/09/29 08:41:52;;;;;;;6.13;5.63;;;13.50;99.90;;;;;;5002346;28;20232;-76
2022/09/29 08:44:28;;;;;;;5.32;4.78;;;13.90;99.90;;;;;;5002832;28;20191;-74
2022/09/29 08:46:58;;;;;;;5.05;4.75;;;14.70;99.90;;;;;;5008775;28;20275;-73
2022/09/29 08:49:34;;;;;;;5.90;5.10;;;15.00;99.90;;;;;;5009507;28;20177;-74
2022/09/29 08:52:08;;;;;;;5.32;4.93;;;14.80;99.90;;;;;;5005667;28;20325;-74
2022/09/29 08:54:38;;;;;;;4.65;4.35;;;14.70;99.90;;;;;;5001465;28;20296;-74
2022/09/29 08:57:05;;;;;;;5.57;5.18;;;14.60;99.90;;;;;;5002370;28;20185;-74
2022/09/29 08:59:31;;;;;;;5.35;4.95;;;14.80;99.90;;;;;;5009271;28;20684;-74
2022/09/29 09:01:57;;;;;;;5.43;4.93;;;15.00;99.90;;;;;;5011606;28;20197;-73
2022/09/29 09:04:44;;;;;;;5.55;5.15;;;15.50;99.90;;;;;;5012773;28;20264;-73
2022/09/29 09:07:15;;;;;;;4.93;4.43;;;15.50;99.90;;;;;;5006912;28;20235;-74
2022/09/29 09:10:01;;;;;;;4.45;4.10;;;15.90;99.90;;;;;;5012587;28;20587;-74
2022/09/29 09:12:58;;;;;;;3.55;3.35;;;16.50;99.90;;;;;;5009997;28;20200;-74
2022/09/29 09:15:29;;;;;;;3.80;3.50;;;17.10;99.90;;;;;;5005892;28;20176;-77
2022/09/29 09:18:30;;;;;;;4.28;3.97;;;17.00;99.90;;;;;;5004724;28;20178;-75
2022/09/29 09:21:07;;;;;;;4.55;3.85;;;16.40;99.90;;;;;;5006522;28;20176;-73
2022/09/29 09:23:55;;;;;;;3.83;3.53;;;16.10;99.90;;;;;;5002219;28;20283;-75
2022/09/29 09:26:41;;;;;;;3.88;3.67;;;15.90;99.90;;;;;;5001359;28;20182;-74
2022/09/29 09:29:29;;;;;;;4.00;3.70;;;16.20;99.90;;;;;;5009259;28;20188;-75
2022/09/29 09:32:01;;;;;;;4.82;4.43;;;16.90;99.90;;;;;;5005212;28;20205;-74
2022/09/29 09:34:36;;;;;;;4.30;3.80;;;17.30;99.90;;;;;;5007540;28;20205;-74
2022/09/29 09:37:10;;;;;;;4.20;3.80;;;17.50;99.90;;;;;;5011844;28;20205;-74
2022/09/29 09:39:46;;;;;;;4.22;3.83;;;17.90;99.90;;;;;;5004731;28;20180;-74
2022/09/29 09:42:20;;;;;;;3.35;3.15;;;18.30;99.90;;;;;;5009561;28;20251;-74
2022/09/29 09:44:51;;;;;;;3.55;3.25;;;18.80;99.90;;;;;;5010967;28;20203;-74
2022/09/29 09:47:23;;;;;;;3.72;3.15;;;18.90;99.90;;;;;;5013714;28;20502;-74
2022/09/29 09:49:53;;;;;;;3.92;3.63;;;18.90;99.90;;;;;;5012076;28;20645;-74
2022/09/29 09:52:53;;;;;;;3.30;2.97;;;19.10;99.90;;;;;;5009407;28;20300;-74
2022/09/29 09:55:23;;;;;;;4.50;3.45;;;19.10;99.90;;;;;;5005916;28;20187;-73
2022/09/29 09:58:11;;;;;;;3.38;3.17;;;19.10;98.60;;;;;;5011317;28;20236;-74
2022/09/29 10:00:59;;;;;;;3.40;3.10;;;18.90;98.90;;;;;;5013443;28;20181;-73
2022/09/29 10:03:27;;;;;;;3.55;3.22;;;18.90;98.20;;;;;;5013124;28;20545;-74
2022/09/29 10:05:52;;;;;;;3.70;3.00;;;19.00;98.40;;;;;;5013086;28;20587;-76
2022/09/29 10:08:30;;;;;;;2.88;2.67;;;19.40;98.50;;;;;;5012014;28;20189;-75
2022/09/29 10:10:57;;;;;;;4.78;3.03;;;19.30;97.30;;;;;;5010452;28;20281;-74
2022/09/29 10:13:28;;;;;;;3.13;2.63;;;19.70;96.70;;;;;;5010659;28;20750;-76
2022/09/29 10:16:22;;;;;;;3.28;2.88;;;19.70;96.40;;;;;;5013113;28;20648;-75
2022/09/29 10:18:52;;;;;;;3.60;2.58;;;19.50;96.20;;;;;;5015599;28;20188;-75
2022/09/29 10:21:22;;;;;;;2.47;2.38;;;19.40;96.40;;;;;;5015390;28;20280;-76
2022/09/29 10:23:53;;;;;;;4.78;2.78;;;19.50;96.00;;;;;;5015116;28;20648;-75
2022/09/29 10:26:39;;;;;;;4.60;3.45;;;19.40;96.10;;;;;;5012482;28;20174;-76
2022/09/29 10:29:33;;;;;;;5.15;2.90;;;19.20;95.70;;;;;;5014659;28;20628;-74
2022/09/29 10:32:06;;;;;;;4.70;2.88;;;18.40;96.80;;;;;;4995582;28;20207;-74
2022/09/29 10:34:36;;;;;;;3.60;3.30;;;18.00;97.80;;;;;;4997700;28;20645;-74
2022/09/29 10:37:19;;;;;;;6.10;3.30;;;17.70;98.80;;;;;;5003510;28;20213;-74
2022/09/29 10:39:47;;;;;;;2.88;2.72;;;17.30;99.60;;;;;;4994606;28;20196;-75
2022/09/29 10:42:34;;;;;;;3.13;2.92;;;17.30;99.90;;;;;;4995614;28;20268;-74
2022/09/29 10:45:16;;;;;;;3.60;3.30;;;17.40;99.90;;;;;;5001178;28;20189;-74
2022/09/29 10:47:47;;;;;;;3.88;3.08;;;17.50;99.90;;;;;;5015413;28;20535;-74
2022/09/29 10:50:16;;;;;;;3.75;3.42;;;17.40;99.90;;;;;;4995607;28;20246;-74
2022/09/29 10:52:51;;;;;;;3.15;2.80;;;17.30;99.90;;;;;;4994387;28;20201;-74
2022/09/29 10:55:29;;;;;;;3.80;3.40;;;17.30;99.90;;;;;;5012617;28;20181;-74
2022/09/29 10:57:57;;;;;;;3.92;2.88;;;17.00;99.90;;;;;;5014180;28;20673;-74
2022/09/29 11:00:33;;;;;;;4.38;3.38;;;16.80;99.90;;;;;;5014822;28;20632;-74
2022/09/29 11:03:25;;;;;;;3.50;3.30;;;16.70;99.90;;;;;;5012687;28;20231;-74
2022/09/29 11:05:58;;;;;;;4.60;4.18;;;16.50;99.90;;;;;;4995014;28;20178;-74
2022/09/29 11:08:27;;;;;;;3.60;3.30;;;16.40;99.90;;;;;;5006747;28;20173;-74
2022/09/29 11:11:39;;;;;;;3.47;3.25;;;16.30;99.90;;;;;;5012394;28;20189;-74
2022/09/29 11:14:05;;;;;;;3.58;3.28;;;16.30;99.90;;;;;;5001166;28;20271;-74
2022/09/29 11:16:36;;;;;;;3.42;3.13;;;17.10;99.90;;;;;;5006172;28;20365;-74
2022/09/29 11:19:09;;;;;;;3.20;2.95;;;17.80;99.90;;;;;;5010943;28;20181;-75
2022/09/29 11:21:41;;;;;;;3.40;3.13;;;18.70;99.90;;;;;;5011395;28;20319;-75
2022/09/29 11:24:25;;;;;;;2.75;2.53;;;19.30;98.40;;;;;;5009792;28;20221;-75
2022/09/29 11:27:10;;;;;;;2.97;2.78;;;20.10;97.40;;;;;;5007563;28;20169;-75
2022/09/29 11:30:08;;;;;;;4.47;3.17;;;20.60;95.00;;;;;;5003477;28;20584;-75
2022/09/29 11:32:57;;;;;;;3.08;2.75;;;20.20;94.10;;;;;;5011339;28;20259;-75
2022/09/29 11:35:45;;;;;;;3.20;2.95;;;19.50;95.00;;;;;;4998359;28;20284;-75
2022/09/29 11:38:37;;;;;;;3.33;2.95;;;19.10;95.90;;;;;;5012245;28;20177;-75
2022/09/29 11:41:24;;;;;;;3.28;3.03;;;18.80;96.50;;;;;;5011918;28;20181;-74
2022/09/29 11:43:54;;;;;;;2.40;2.20;;;18.60;96.90;;;;;;5005701;28;20174;-74
2022/09/29 11:46:53;;;;;;;2.70;2.50;;;18.70;95.70;;;;;;5006686;28;20706;-74
2022/09/29 11:49:43;;;;;;;6.65;3.50;;;18.60;96.20;;;;;;5002938;28;20181;-74
2022/09/29 11:52:23;;;;;;;3.92;2.63;;;18.50;96.90;;;;;;5004284;28;20609;-74
2022/09/29 11:55:12;;;;;;;3.13;2.92;;;18.40;97.70;;;;;;5010030;28;20215;-75
2022/09/29 11:58:02;;;;;;;3.60;2.78;;;18.40;97.00;;;;;;5005952;28;20709;-75
2022/09/29 12:01:03;;;;;;;2.85;2.65;;;18.50;96.10;;;;;;5020026;28;20269;-75
2022/09/29 12:04:08;;;;;;;3.15;2.85;;;18.60;95.10;;;;;;5010735;28;20177;-74
2022/09/29 12:06:51;;;;;;;3.45;3.13;;;18.90;95.30;;;;;;5010892;28;20208;-74
2022/09/29 12:09:53;;;;;;;3.05;2.85;;;20.00;94.50;;;;;;5006945;28;20277;-75
2022/09/29 12:12:45;;;;;;;2.90;2.70;;;21.70;91.10;;;;;;5004736;28;20232;-75
2022/09/29 12:15:30;;;;;;;2.60;2.40;;;22.90;87.40;;;;;;5012994;28;20204;-75
2022/09/29 12:18:01;;;;;;;3.20;2.90;;;22.80;85.90;;;;;;5013144;28;20166;-76
2022/09/29 12:20:31;;;;;;;2.90;2.70;;;22.30;87.00;;;;;;5012118;28;20184;-75
2022/09/29 12:23:05;;;;;;;3.13;2.83;;;21.40;86.80;;;;;;5013095;28;20197;-75
2022/09/29 12:25:34;;;;;;;3.05;2.72;;;20.70;87.80;;;;;;5013467;28;20211;-75
2022/09/29 12:28:16;;;;;;;2.67;2.47;;;19.90;90.60;;;;;;5010199;28;20178;-74
2022/09/29 12:30:50;;;;;;;3.97;2.65;;;19.30;92.40;;;;;;5009630;28;20655;-74
2022/09/29 12:33:52;;;;;;;3.70;3.00;;;19.00;91.80;;;;;;5012434;28;20209;-74
2022/09/29 12:39:45;;;;;;;3.55;2.47;;;18.60;93.70;;;;;;5012963;28;20173;-74
2022/09/29 12:42:28;;;;;;;2.85;2.70;;;18.60;93.30;;;;;;4996032;28;20680;-75
2022/09/29 12:45:05;;;;;;;2.63;2.42;;;18.70;93.40;;;;;;5017846;28;20192;-77
2022/09/29 12:47:53;;;;;;;2.60;2.38;;;18.70;94.70;;;;;;5005626;28;20382;-77
2022/09/29 12:50:33;;;;;;;2.45;2.28;;;19.20;92.80;;;;;;5003136;28;20177;-72
2022/09/29 12:53:26;;;;;;;2.67;1.95;;;20.00;89.70;;;;;;5005560;28;20197;-72
2022/09/29 12:56:02;;;;;;;1.88;1.77;;;20.20;88.80;;;;;;5001457;28;20213;-72
2022/09/29 12:58:30;;;;;;;3.50;2.20;;;20.00;88.40;;;;;;5007164;28;20260;-72
2022/09/29 13:01:14;;;;;;;1.95;1.85;;;20.00;88.20;;;;;;5002731;28;20174;-73
2022/09/29 13:03:51;;;;;;;2.35;2.10;;;20.00;88.60;;;;;;5005768;28;20177;-73
2022/09/29 13:06:48;;;;;;;2.20;2.10;;;19.90;87.60;;;;;;5006787;28;20593;-74
2022/09/29 13:09:29;;;;;;;1.80;1.67;;;19.70;86.90;;;;;;5004599;28;20185;-73
2022/09/29 13:11:57;;;;;;;1.92;1.40;;;19.70;87.10;;;;;;5005867;28;20757;-73
2022/09/29 13:14:42;;;;;;;1.30;1.20;;;19.60;84.40;;;;;;5002815;28;20240;-75
2022/09/29 13:17:08;;;;;;;1.98;1.70;;;19.40;84.90;;;;;;5005508;28;20312;-74
2022/09/29 13:19:48;;;;;;;1.60;1.50;;;19.20;86.30;;;;;;5006185;28;20263;-75
2022/09/29 13:22:32;;;;;;;2.50;1.70;;;19.20;86.90;;;;;;5003954;28;20250;-75
2022/09/29 13:25:10;;;;;;;2.60;1.88;;;19.10;90.20;;;;;;5010607;28;20553;-75
2022/09/29 13:27:40;;;;;;;1.50;1.40;;;19.30;89.10;;;;;;5011604;28;20540;-75
2022/09/29 13:30:27;;;;;;;1.45;1.35;;;20.00;87.70;;;;;;5008342;28;20192;-75
2022/09/29 13:33:07;;;;;;;1.92;1.40;;;20.70;87.40;;;;;;4996757;28;20216;-74